createdAt,value
2018-07-30T00:00:24.711Z,20.40
2018-07-30T00:02:53.197Z,20.48
2018-07-30T00:05:21.850Z,20.52
2018-07-30T00:07:50.283Z,20.33
2018-07-30T00:10:18.768Z,20.30
2018-07-30T00:12:47.207Z,20.08
2018-07-30T00:15:16.010Z,20.00
2018-07-30T00:17:44.415Z,19.99
2018-07-30T00:20:12.935Z,20.07
2018-07-30T00:22:41.591Z,20.06
2018-07-30T00:25:10.628Z,20.02
2018-07-30T00:27:39.123Z,20.04
2018-07-30T00:30:07.576Z,20.10
2018-07-30T00:32:36.045Z,20.03
2018-07-30T00:35:04.613Z,20.01
2018-07-30T00:37:33.130Z,19.94
2018-07-30T00:40:01.599Z,19.93
2018-07-30T00:42:30.100Z,20.05
2018-07-30T00:44:58.573Z,20.02
2018-07-30T00:47:27.052Z,19.66
2018-07-30T00:49:55.484Z,19.47
2018-07-30T00:52:24.135Z,19.82
2018-07-30T00:54:52.790Z,19.94
2018-07-30T00:57:21.246Z,19.92
2018-07-30T00:59:49.779Z,19.60
2018-07-30T01:02:18.231Z,19.56
2018-07-30T01:04:46.727Z,19.79
2018-07-30T01:07:15.619Z,19.74
2018-07-30T01:09:44.035Z,19.80
2018-07-30T01:12:12.515Z,19.65
2018-07-30T01:14:41.330Z,19.65
2018-07-30T01:17:09.784Z,19.59
2018-07-30T01:19:38.170Z,19.44
2018-07-30T01:22:06.632Z,19.47
2018-07-30T01:24:35.088Z,19.32
2018-07-30T01:27:03.575Z,19.34
2018-07-30T01:29:32.269Z,19.32
2018-07-30T01:32:00.807Z,19.03
2018-07-30T01:34:29.287Z,19.07
2018-07-30T01:36:57.727Z,19.13
2018-07-30T01:39:26.265Z,19.17
2018-07-30T01:41:54.748Z,19.10
2018-07-30T01:44:23.338Z,18.89
2018-07-30T01:46:51.786Z,18.67
2018-07-30T01:49:20.229Z,18.66
2018-07-30T01:51:48.688Z,18.91
2018-07-30T01:54:17.067Z,18.93
2018-07-30T01:56:45.524Z,18.96
2018-07-30T01:59:14.192Z,18.99
2018-07-30T02:01:42.639Z,19.12
2018-07-30T02:04:11.095Z,18.83
2018-07-30T02:06:39.655Z,18.90
2018-07-30T02:09:10.207Z,19.12
2018-07-30T02:11:38.687Z,19.05
2018-07-30T02:14:07.856Z,19.13
2018-07-30T02:16:36.381Z,18.91
2018-07-30T02:19:05.119Z,19.00
2018-07-30T02:21:33.717Z,19.10
2018-07-30T02:24:02.151Z,18.93
2018-07-30T02:26:30.751Z,18.70
2018-07-30T02:28:59.214Z,18.66
2018-07-30T02:31:27.752Z,18.72
2018-07-30T02:33:56.259Z,18.77
2018-07-30T02:36:24.811Z,18.68
2018-07-30T02:38:53.333Z,18.72
2018-07-30T02:41:21.803Z,18.70
2018-07-30T02:43:50.275Z,18.56
2018-07-30T02:46:18.821Z,18.56
2018-07-30T02:48:47.300Z,18.66
2018-07-30T02:51:15.831Z,18.56
2018-07-30T02:53:44.263Z,18.60
2018-07-30T02:56:12.932Z,18.74
2018-07-30T02:58:41.510Z,18.62
2018-07-30T03:01:10.033Z,18.76
2018-07-30T03:03:38.695Z,18.85
2018-07-30T03:06:07.133Z,18.90
2018-07-30T03:08:35.651Z,18.78
2018-07-30T03:11:04.419Z,18.83
2018-07-30T03:13:32.922Z,18.92
2018-07-30T03:16:01.424Z,18.84
2018-07-30T03:18:29.979Z,18.86
2018-07-30T03:20:58.510Z,18.93
2018-07-30T03:23:27.014Z,18.88
2018-07-30T03:25:55.619Z,18.42
2018-07-30T03:28:24.099Z,18.55
2018-07-30T03:30:52.521Z,18.72
2018-07-30T03:33:21.010Z,18.83
2018-07-30T03:35:49.671Z,18.76
2018-07-30T03:38:18.423Z,18.75
2018-07-30T03:40:47.067Z,18.91
2018-07-30T03:43:15.612Z,18.71
2018-07-30T03:45:44.207Z,18.60
2018-07-30T03:48:12.841Z,18.50
2018-07-30T03:50:41.267Z,18.11
2018-07-30T03:53:09.800Z,18.09
2018-07-30T03:55:38.275Z,18.41
2018-07-30T03:58:06.828Z,18.35
2018-07-30T04:00:35.248Z,18.35
2018-07-30T04:03:03.944Z,18.40
2018-07-30T04:05:32.438Z,18.31
2018-07-30T04:08:00.943Z,18.34
2018-07-30T04:10:29.432Z,18.41
2018-07-30T04:12:57.823Z,18.32
2018-07-30T04:15:26.263Z,18.14
2018-07-30T04:17:54.843Z,18.18
2018-07-30T04:20:23.290Z,18.20
2018-07-30T04:22:51.707Z,18.03
2018-07-30T04:25:20.210Z,17.83
2018-07-30T04:27:48.655Z,18.00
2018-07-30T04:30:17.160Z,18.03
2018-07-30T04:32:45.727Z,18.35
2018-07-30T04:35:14.365Z,18.43
2018-07-30T04:37:42.828Z,18.47
2018-07-30T04:40:11.642Z,18.42
2018-07-30T04:42:40.186Z,18.58
2018-07-30T04:45:08.751Z,18.49
2018-07-30T04:47:37.340Z,18.75
2018-07-30T04:50:05.827Z,18.72
2018-07-30T04:52:34.271Z,18.79
2018-07-30T04:55:02.943Z,19.58
2018-07-30T04:57:31.425Z,20.47
2018-07-30T04:59:59.899Z,21.47
2018-07-30T05:02:28.607Z,21.83
2018-07-30T05:04:57.110Z,22.22
2018-07-30T05:07:25.543Z,22.57
2018-07-30T05:09:54.270Z,22.83
2018-07-30T05:12:22.740Z,22.91
2018-07-30T05:14:51.339Z,23.36
2018-07-30T05:17:19.808Z,23.17
2018-07-30T05:19:48.287Z,23.48
2018-07-30T05:22:16.707Z,23.75
2018-07-30T05:24:45.139Z,23.99
2018-07-30T05:27:13.779Z,24.14
2018-07-30T05:29:42.233Z,24.01
2018-07-30T05:32:10.943Z,23.99
2018-07-30T05:34:39.439Z,23.79
2018-07-30T05:37:07.983Z,24.25
2018-07-30T05:39:36.608Z,24.71
2018-07-30T05:42:05.124Z,24.88
2018-07-30T05:44:33.543Z,24.75
2018-07-30T05:47:02.399Z,25.30
2018-07-30T05:49:30.907Z,25.15
2018-07-30T05:51:59.459Z,25.87
2018-07-30T05:54:28.120Z,26.08
2018-07-30T05:56:56.611Z,25.94
2018-07-30T05:59:25.129Z,25.29
2018-07-30T06:01:53.871Z,25.32
2018-07-30T06:04:22.322Z,25.35
2018-07-30T06:06:50.794Z,25.30
2018-07-30T06:09:19.326Z,25.21
2018-07-30T06:11:47.815Z,25.40
2018-07-30T06:14:16.227Z,25.34
2018-07-30T06:16:45.064Z,25.67
2018-07-30T06:19:13.696Z,25.78
2018-07-30T06:21:42.151Z,25.97
2018-07-30T06:24:11.048Z,25.89
2018-07-30T06:26:39.552Z,25.74
2018-07-30T06:29:08.063Z,26.13
2018-07-30T06:31:36.571Z,25.93
2018-07-30T06:34:05.055Z,25.88
2018-07-30T06:36:33.471Z,25.99
2018-07-30T06:39:02.063Z,25.86
2018-07-30T06:41:30.553Z,26.09
2018-07-30T06:43:58.943Z,26.28
2018-07-30T06:46:27.422Z,25.43
2018-07-30T06:48:55.930Z,26.04
2018-07-30T06:51:24.395Z,26.01
2018-07-30T06:53:52.923Z,27.11
2018-07-30T06:56:21.316Z,26.47
2018-07-30T06:58:49.816Z,26.02
2018-07-30T07:01:18.351Z,26.06
2018-07-30T07:03:46.776Z,26.31
2018-07-30T07:06:15.249Z,26.12
2018-07-30T07:08:44.088Z,25.81
2018-07-30T07:11:12.543Z,25.87
2018-07-30T07:13:41.043Z,25.92
2018-07-30T07:16:09.571Z,26.29
2018-07-30T07:18:38.012Z,26.40
2018-07-30T07:21:06.472Z,26.74
2018-07-30T07:23:34.971Z,26.50
2018-07-30T07:26:03.552Z,26.88
2018-07-30T07:28:32.156Z,27.03
2018-07-30T07:31:00.627Z,27.02
2018-07-30T07:33:29.153Z,27.03
2018-07-30T07:35:57.625Z,27.11
2018-07-30T07:38:26.263Z,27.21
2018-07-30T07:40:54.633Z,27.24
2018-07-30T07:43:23.151Z,27.38
2018-07-30T07:45:51.963Z,27.50
2018-07-30T07:48:20.717Z,27.39
2018-07-30T07:50:49.519Z,27.77
2018-07-30T07:53:18.195Z,28.45
2018-07-30T07:55:46.685Z,29.19
2018-07-30T07:58:15.099Z,28.38
2018-07-30T08:00:43.627Z,28.71
2018-07-30T08:03:12.071Z,28.38
2018-07-30T08:05:40.539Z,28.15
2018-07-30T08:08:09.226Z,28.38
2018-07-30T08:10:37.764Z,28.95
2018-07-30T08:13:06.355Z,29.15
2018-07-30T08:15:35.111Z,28.85
2018-07-30T08:18:07.964Z,28.41
2018-07-30T08:20:36.918Z,28.79
2018-07-30T08:23:05.715Z,29.20
2018-07-30T08:25:34.267Z,29.92
2018-07-30T08:28:02.921Z,29.48
2018-07-30T08:30:31.439Z,29.63
2018-07-30T08:32:59.996Z,29.57
2018-07-30T08:35:28.811Z,29.79
2018-07-30T08:37:57.359Z,30.11
2018-07-30T08:40:25.844Z,30.02
2018-07-30T08:42:54.343Z,29.97
2018-07-30T08:45:22.855Z,30.01
2018-07-30T08:47:51.323Z,30.30
2018-07-30T08:50:20.189Z,30.99
2018-07-30T08:52:48.691Z,30.51
2018-07-30T08:55:17.203Z,30.50
2018-07-30T08:57:45.668Z,29.96
2018-07-30T09:00:14.179Z,30.24
2018-07-30T09:02:42.703Z,30.17
2018-07-30T09:05:11.459Z,30.55
2018-07-30T09:07:39.983Z,31.10
2018-07-30T09:10:08.908Z,31.04
2018-07-30T09:12:37.898Z,30.84
2018-07-30T09:15:06.731Z,31.17
2018-07-30T09:17:35.196Z,31.16
2018-07-30T09:20:04.157Z,30.94
2018-07-30T09:22:32.699Z,31.42
2018-07-30T09:25:01.211Z,30.98
2018-07-30T09:27:29.894Z,31.17
2018-07-30T09:29:58.409Z,31.37
2018-07-30T09:32:26.872Z,31.82
2018-07-30T09:34:55.418Z,31.78
2018-07-30T09:37:24.009Z,31.52
2018-07-30T09:39:52.898Z,31.48
2018-07-30T09:42:21.723Z,31.62
2018-07-30T09:44:50.205Z,31.51
2018-07-30T09:47:18.723Z,31.49
2018-07-30T09:49:47.488Z,31.39
2018-07-30T09:52:15.953Z,31.73
2018-07-30T09:54:44.362Z,31.28
2018-07-30T09:57:13.295Z,31.64
2018-07-30T09:59:41.737Z,31.94
2018-07-30T10:02:10.274Z,32.61
2018-07-30T10:04:38.987Z,33.05
2018-07-30T10:07:07.399Z,32.85
2018-07-30T10:09:35.827Z,33.22
2018-07-30T10:12:05.255Z,33.10
2018-07-30T10:14:33.674Z,33.07
2018-07-30T10:17:02.105Z,32.74
2018-07-30T10:19:30.811Z,32.52
2018-07-30T10:21:59.759Z,32.58
2018-07-30T10:24:28.168Z,32.54
2018-07-30T10:26:56.881Z,32.23
2018-07-30T10:29:25.285Z,32.21
2018-07-30T10:31:53.909Z,32.81
2018-07-30T10:34:22.442Z,32.60
2018-07-30T10:36:50.861Z,32.92
2018-07-30T10:39:19.331Z,33.52
2018-07-30T10:41:47.811Z,33.11
2018-07-30T10:44:16.305Z,32.80
2018-07-30T10:46:44.731Z,33.30
2018-07-30T10:49:13.259Z,33.50
2018-07-30T10:51:41.744Z,33.25
2018-07-30T10:54:10.249Z,33.58
2018-07-30T10:56:38.891Z,33.86
2018-07-30T10:59:07.415Z,32.89
2018-07-30T11:01:35.915Z,32.89
2018-07-30T11:04:04.435Z,33.66
2018-07-30T11:06:32.987Z,33.70
2018-07-30T11:09:01.429Z,33.43
2018-07-30T11:11:29.931Z,33.61
2018-07-30T11:13:58.344Z,33.47
2018-07-30T11:16:26.791Z,33.53
2018-07-30T11:18:55.358Z,33.70
2018-07-30T11:21:23.986Z,33.55
2018-07-30T11:23:52.573Z,33.84
2018-07-30T11:26:21.345Z,34.17
2018-07-30T11:28:49.811Z,33.63
2018-07-30T11:31:18.251Z,33.51
2018-07-30T11:33:47.115Z,33.58
2018-07-30T11:36:15.568Z,33.51
2018-07-30T11:38:44.031Z,33.97
2018-07-30T11:41:12.709Z,34.00
2018-07-30T11:43:41.239Z,34.12
2018-07-30T11:46:09.744Z,33.95
2018-07-30T11:48:38.338Z,33.82
2018-07-30T11:51:06.819Z,33.28
2018-07-30T11:53:35.331Z,33.45
2018-07-30T11:56:03.828Z,33.24
2018-07-30T11:58:32.251Z,33.15
2018-07-30T12:01:00.662Z,33.22
2018-07-30T12:03:29.136Z,33.00
2018-07-30T12:05:57.591Z,33.26
2018-07-30T12:08:26.064Z,33.10
2018-07-30T12:10:54.623Z,33.44
2018-07-30T12:13:23.084Z,33.28
2018-07-30T12:15:51.563Z,33.29
2018-07-30T12:18:20.075Z,33.52
2018-07-30T12:20:48.595Z,33.47
2018-07-30T12:23:17.195Z,33.37
2018-07-30T12:25:45.981Z,33.67
2018-07-30T12:28:14.403Z,33.94
2018-07-30T12:30:43.002Z,34.08
2018-07-30T12:33:11.583Z,33.93
2018-07-30T12:35:40.037Z,34.26
2018-07-30T12:38:08.563Z,34.20
2018-07-30T12:40:37.030Z,34.17
2018-07-30T12:43:06.010Z,34.03
2018-07-30T12:45:40.139Z,34.04
2018-07-30T12:48:08.742Z,33.94
2018-07-30T12:50:37.571Z,34.26
2018-07-30T12:53:06.097Z,34.26
2018-07-30T12:55:35.071Z,34.18
2018-07-30T12:58:03.688Z,33.95
2018-07-30T13:00:32.315Z,33.70
2018-07-30T13:03:01.151Z,33.63
2018-07-30T13:05:29.510Z,33.77
2018-07-30T13:07:58.228Z,34.36
2018-07-30T13:10:26.800Z,34.23
2018-07-30T13:12:55.270Z,34.01
2018-07-30T13:15:23.743Z,33.63
2018-07-30T13:17:52.179Z,33.40
2018-07-30T13:20:20.682Z,33.75
2018-07-30T13:22:49.348Z,34.06
2018-07-30T13:25:17.907Z,34.02
2018-07-30T13:27:46.376Z,33.85
2018-07-30T13:30:14.874Z,33.67
2018-07-30T13:32:43.359Z,33.53
2018-07-30T13:35:11.713Z,33.67
2018-07-30T13:37:40.273Z,33.42
2018-07-30T13:40:08.839Z,33.35
2018-07-30T13:42:37.370Z,33.30
2018-07-30T13:45:06.328Z,33.50
2018-07-30T13:47:34.839Z,33.35
2018-07-30T13:50:03.418Z,33.80
2018-07-30T13:52:31.871Z,33.84
2018-07-30T13:55:00.607Z,34.14
2018-07-30T13:57:29.010Z,34.57
2018-07-30T13:59:57.920Z,34.50
2018-07-30T14:02:26.343Z,34.48
2018-07-30T14:04:54.819Z,34.66
2018-07-30T14:07:23.299Z,34.51
2018-07-30T14:09:51.755Z,34.15
2018-07-30T14:12:20.300Z,33.79
2018-07-30T14:14:48.780Z,33.66
2018-07-30T14:17:17.249Z,33.69
2018-07-30T14:19:45.657Z,33.74
2018-07-30T14:22:14.199Z,34.25
2018-07-30T14:24:42.609Z,34.30
2018-07-30T14:27:11.623Z,34.50
2018-07-30T14:29:40.222Z,34.77
2018-07-30T14:32:08.750Z,34.85
2018-07-30T14:34:37.155Z,35.11
2018-07-30T14:39:41.585Z,35.09
2018-07-30T14:42:10.310Z,35.01
2018-07-30T14:44:38.899Z,34.93
2018-07-30T14:47:07.431Z,34.52
2018-07-30T14:49:36.155Z,34.35
2018-07-30T14:52:04.712Z,34.33
2018-07-30T14:54:33.200Z,34.47
2018-07-30T14:57:02.023Z,34.32
2018-07-30T14:59:30.482Z,34.54
2018-07-30T15:01:59.218Z,34.61
2018-07-30T15:04:27.697Z,34.39
2018-07-30T15:06:56.207Z,34.36
2018-07-30T15:09:24.662Z,34.25
2018-07-30T15:11:53.216Z,34.14
2018-07-30T15:14:21.587Z,34.19
2018-07-30T15:16:50.002Z,34.40
2018-07-30T15:19:18.542Z,34.25
2018-07-30T15:21:46.959Z,34.28
2018-07-30T15:24:15.408Z,34.37
2018-07-30T15:26:43.944Z,34.26
2018-07-30T15:29:12.394Z,34.13
2018-07-30T15:31:40.775Z,34.28
2018-07-30T15:34:09.303Z,34.22
2018-07-30T15:36:37.779Z,34.29
2018-07-30T15:39:11.503Z,34.57
2018-07-30T15:41:40.541Z,34.42
2018-07-30T15:44:09.051Z,34.39
2018-07-30T15:46:38.213Z,34.44
2018-07-30T15:49:06.541Z,34.67
2018-07-30T15:51:35.039Z,34.41
2018-07-30T15:54:03.676Z,34.63
2018-07-30T15:56:32.092Z,34.87
2018-07-30T15:59:00.563Z,34.78
2018-07-30T16:01:29.102Z,34.37
2018-07-30T16:03:57.551Z,34.79
2018-07-30T16:06:26.086Z,34.96
2018-07-30T16:08:54.572Z,34.64
2018-07-30T16:11:23.067Z,34.74
2018-07-30T16:13:51.842Z,34.73
2018-07-30T16:16:20.387Z,34.94
2018-07-30T16:18:48.867Z,34.49
2018-07-30T16:21:21.521Z,34.85
2018-07-30T16:23:49.998Z,34.59
2018-07-30T16:26:18.389Z,34.49
2018-07-30T16:28:46.912Z,34.36
2018-07-30T16:31:15.296Z,34.22
2018-07-30T16:33:43.744Z,34.17
2018-07-30T16:36:12.245Z,34.35
2018-07-30T16:38:40.723Z,34.63
2018-07-30T16:41:09.174Z,34.62
2018-07-30T16:43:38.043Z,34.54
2018-07-30T16:46:06.799Z,34.79
2018-07-30T16:48:35.280Z,34.60
2018-07-30T16:51:03.892Z,34.56
2018-07-30T16:53:32.291Z,34.85
2018-07-30T16:56:00.794Z,34.57
2018-07-30T16:58:29.372Z,34.58
2018-07-30T17:00:57.787Z,34.33
2018-07-30T17:03:26.277Z,34.08
2018-07-30T17:05:54.903Z,34.15
2018-07-30T17:08:23.328Z,34.09
2018-07-30T17:10:51.961Z,33.91
2018-07-30T17:13:20.576Z,33.84
2018-07-30T17:15:49.355Z,33.88
2018-07-30T17:18:17.890Z,33.96
2018-07-30T17:20:46.425Z,33.67
2018-07-30T17:23:14.863Z,33.70
2018-07-30T17:25:43.327Z,33.65
2018-07-30T17:28:12.171Z,33.69
2018-07-30T17:30:40.588Z,33.67
2018-07-30T17:33:09.064Z,33.76
2018-07-30T17:35:37.663Z,33.78
2018-07-30T17:38:06.217Z,33.72
2018-07-30T17:40:34.659Z,33.80
2018-07-30T17:43:03.167Z,33.71
2018-07-30T17:45:31.586Z,33.88
2018-07-30T17:48:00.037Z,33.80
2018-07-30T17:50:28.587Z,33.79
2018-07-30T17:52:57.183Z,33.62
2018-07-30T17:55:25.627Z,33.70
2018-07-30T17:57:54.304Z,33.57
2018-07-30T18:00:22.719Z,33.48
2018-07-30T18:02:51.191Z,33.65
2018-07-30T18:05:20.908Z,33.66
2018-07-30T18:07:50.604Z,33.60
2018-07-30T18:10:19.067Z,33.47
2018-07-30T18:12:48.735Z,33.55
2018-07-30T18:15:19.663Z,33.68
2018-07-30T18:17:48.155Z,33.49
2018-07-30T18:20:16.722Z,33.39
2018-07-30T18:22:46.019Z,33.29
2018-07-30T18:25:14.647Z,33.23
2018-07-30T18:27:43.075Z,32.96
2018-07-30T18:30:12.780Z,33.06
2018-07-30T18:32:41.267Z,32.94
2018-07-30T18:35:10.038Z,32.88
2018-07-30T18:37:39.418Z,32.83
2018-07-30T18:40:08.138Z,32.71
2018-07-30T18:42:36.896Z,32.62
2018-07-30T18:45:06.946Z,32.38
2018-07-30T18:47:35.759Z,32.22
2018-07-30T18:50:06.761Z,31.90
2018-07-30T18:52:35.275Z,31.54
2018-07-30T18:55:03.771Z,31.37
2018-07-30T18:57:32.274Z,30.87
2018-07-30T19:00:01.018Z,30.24
2018-07-30T19:02:29.499Z,30.40
2018-07-30T19:04:58.135Z,30.35
2018-07-30T19:07:26.885Z,30.21
2018-07-30T19:09:55.772Z,29.62
2018-07-30T19:12:24.151Z,29.45
2018-07-30T19:14:52.695Z,29.23
2018-07-30T19:17:21.163Z,29.03
2018-07-30T19:19:49.558Z,29.11
2018-07-30T19:22:18.198Z,29.14
2018-07-30T19:24:46.638Z,28.65
2018-07-30T19:27:15.059Z,28.44
2018-07-30T19:29:43.731Z,28.08
2018-07-30T19:32:12.371Z,28.09
2018-07-30T19:34:40.817Z,28.25
2018-07-30T19:37:09.192Z,27.91
2018-07-30T19:39:37.643Z,27.59
2018-07-30T19:42:06.155Z,27.32
2018-07-30T19:44:34.736Z,27.11
2018-07-30T19:47:03.259Z,26.92
2018-07-30T19:49:31.739Z,26.82
2018-07-30T19:52:00.278Z,26.82
2018-07-30T19:54:28.807Z,26.66
2018-07-30T19:56:57.299Z,26.80
2018-07-30T19:59:25.837Z,26.80
2018-07-30T20:01:54.288Z,26.73
2018-07-30T20:04:22.767Z,26.92
2018-07-30T20:06:51.417Z,26.84
2018-07-30T20:09:19.848Z,26.77
2018-07-30T20:11:48.597Z,26.74
2018-07-30T20:14:17.032Z,26.76
2018-07-30T20:16:45.563Z,26.52
2018-07-30T20:19:14.031Z,26.37
2018-07-30T20:21:42.783Z,26.49
2018-07-30T20:24:11.366Z,26.24
2018-07-30T20:26:39.884Z,26.31
2018-07-30T20:29:08.751Z,26.09
2018-07-30T20:31:37.167Z,26.07
2018-07-30T20:34:05.969Z,26.05
2018-07-30T20:36:34.434Z,25.79
2018-07-30T20:39:03.054Z,25.67
2018-07-30T20:41:31.563Z,25.67
2018-07-30T20:44:00.284Z,25.60
2018-07-30T20:46:28.839Z,25.52
2018-07-30T20:48:57.319Z,25.10
2018-07-30T20:51:25.867Z,25.16
2018-07-30T20:53:54.351Z,24.86
2018-07-30T20:56:22.849Z,24.75
2018-07-30T20:58:51.311Z,25.01
2018-07-30T21:01:19.791Z,24.95
2018-07-30T21:03:48.235Z,24.77
2018-07-30T21:06:16.724Z,24.62
2018-07-30T21:08:45.166Z,24.77
2018-07-30T21:11:13.782Z,24.67
2018-07-30T21:13:42.487Z,24.59
2018-07-30T21:16:11.034Z,24.60
2018-07-30T21:18:39.473Z,24.41
2018-07-30T21:21:09.046Z,24.17
2018-07-30T21:23:37.645Z,24.18
2018-07-30T21:26:06.173Z,24.10
2018-07-30T21:28:35.159Z,24.16
2018-07-30T21:31:03.667Z,24.12
2018-07-30T21:33:32.167Z,23.89
2018-07-30T21:36:00.674Z,23.91
2018-07-30T21:38:29.086Z,23.98
2018-07-30T21:40:57.567Z,23.74
2018-07-30T21:43:26.001Z,23.78
2018-07-30T21:45:54.380Z,23.68
2018-07-30T21:48:23.627Z,23.67
2018-07-30T21:50:52.202Z,23.60
2018-07-30T21:53:20.762Z,23.52
2018-07-30T21:55:49.607Z,23.46
2018-07-30T21:58:18.415Z,23.44
2018-07-30T22:00:52.196Z,23.52
2018-07-30T22:03:21.011Z,23.61
2018-07-30T22:05:53.673Z,23.31
2018-07-30T22:08:22.623Z,23.31
2018-07-30T22:10:51.343Z,23.09
2018-07-30T22:13:19.744Z,22.90
2018-07-30T22:15:48.599Z,22.83
2018-07-30T22:18:17.309Z,22.94
2018-07-30T22:20:46.964Z,23.04
2018-07-30T22:23:15.639Z,22.87
2018-07-30T22:25:44.170Z,22.67
2018-07-30T22:28:12.552Z,22.82
2018-07-30T22:30:41.277Z,22.81
2018-07-30T22:33:09.716Z,22.75
2018-07-30T22:35:38.342Z,22.67
2018-07-30T22:38:07.127Z,22.76
2018-07-30T22:40:35.627Z,22.75
2018-07-30T22:43:04.288Z,22.66
2018-07-30T22:45:32.932Z,22.52
2018-07-30T22:48:01.359Z,22.49
2018-07-30T22:50:29.815Z,22.57
2018-07-30T22:52:58.340Z,22.16
2018-07-30T22:55:26.755Z,22.05
2018-07-30T22:57:55.131Z,22.15
2018-07-30T23:00:23.791Z,22.04
2018-07-30T23:02:52.295Z,22.12
2018-07-30T23:05:20.676Z,22.19
2018-07-30T23:07:49.183Z,22.24
2018-07-30T23:10:17.691Z,22.14
2018-07-30T23:12:46.111Z,22.02
2018-07-30T23:15:15.153Z,22.10
2018-07-30T23:17:43.607Z,21.95
2018-07-30T23:20:12.020Z,21.70
2018-07-30T23:22:40.631Z,21.80
2018-07-30T23:25:09.323Z,21.72
2018-07-30T23:27:37.999Z,21.80
2018-07-30T23:30:07.083Z,21.63
2018-07-30T23:32:35.490Z,21.58
2018-07-30T23:35:03.953Z,21.20
2018-07-30T23:37:32.405Z,21.43
2018-07-30T23:40:00.984Z,21.46
2018-07-30T23:42:29.410Z,21.48
2018-07-30T23:44:58.675Z,21.66
2018-07-30T23:47:27.127Z,21.50
2018-07-30T23:49:55.703Z,21.41
2018-07-30T23:52:24.127Z,21.54
2018-07-30T23:54:52.836Z,21.37
2018-07-30T23:57:21.331Z,21.37
2018-07-30T23:59:50.202Z,21.33
